sensor_id;sensor_type;location;lat;lon;timestamp;pressure;altitude;pressure_sealevel;temperature;humidity
75867;BME280;64513;56.258;43.980;2023-03-03T00:01:06;98036.48;;;2.94;55.52
75867;BME280;64513;56.258;43.980;2023-03-03T00:03:30;98042.48;;;2.95;55.55
75867;BME280;64513;56.258;43.980;2023-03-03T00:05:55;98030.48;;;2.94;55.53
75867;BME280;64513;56.258;43.980;2023-03-03T00:08:20;98038.05;;;2.95;55.57
75867;BME280;64513;56.258;43.980;2023-03-03T00:10:44;98031.26;;;2.94;55.54
75867;BME280;64513;56.258;43.980;2023-03-03T00:13:29;98027.60;;;2.95;55.71
75867;BME280;64513;56.258;43.980;2023-03-03T00:15:54;98029.16;;;2.96;55.64
75867;BME280;64513;56.258;43.980;2023-03-03T00:27:34;98020.81;;;2.94;55.69
75867;BME280;64513;56.258;43.980;2023-03-03T00:29:59;98010.38;;;2.94;55.69
75867;BME280;64513;56.258;43.980;2023-03-03T00:32:45;98000.46;;;2.91;55.76
75867;BME280;64513;56.258;43.980;2023-03-03T00:35:31;98000.46;;;2.91;55.76
75867;BME280;64513;56.258;43.980;2023-03-03T00:37:59;98004.12;;;2.90;55.85
75867;BME280;64513;56.258;43.980;2023-03-03T00:40:26;97998.12;;;2.90;55.85
75867;BME280;64513;56.258;43.980;2023-03-03T00:42:53;97998.90;;;2.90;55.92
75867;BME280;64513;56.258;43.980;2023-03-03T00:51:28;97984.80;;;2.91;55.94
75867;BME280;64513;56.258;43.980;2023-03-03T00:53:54;97989.23;;;2.91;55.97
75867;BME280;64513;56.258;43.980;2023-03-03T00:56:18;97992.62;;;2.91;55.98
75867;BME280;64513;56.258;43.980;2023-03-03T00:58:42;97988.97;;;2.92;55.96
75867;BME280;64513;56.258;43.980;2023-03-03T01:01:08;97982.70;;;2.93;56.05
75867;BME280;64513;56.258;43.980;2023-03-03T01:03:32;97982.70;;;2.93;56.05
75867;BME280;64513;56.258;43.980;2023-03-03T01:05:56;97981.39;;;2.96;56.13
75867;BME280;64513;56.258;43.980;2023-03-03T01:08:21;97983.73;;;2.97;56.08
75867;BME280;64513;56.258;43.980;2023-03-03T01:10:47;97979.30;;;2.98;56.14
75867;BME280;64513;56.258;43.980;2023-03-03T01:13:12;97981.61;;;2.99;56.12
75867;BME280;64513;56.258;43.980;2023-03-03T01:15:38;97983.17;;;3.00;56.18
75867;BME280;64513;56.258;43.980;2023-03-03T01:18:03;97984.73;;;3.01;56.21
75867;BME280;64513;56.258;43.980;2023-03-03T01:20:29;97975.84;;;3.02;56.31
75867;BME280;64513;56.258;43.980;2023-03-03T01:22:53;97972.19;;;3.03;56.29
75867;BME280;64513;56.258;43.980;2023-03-03T01:25:17;97969.58;;;3.03;56.41
75867;BME280;64513;56.258;43.980;2023-03-03T01:27:41;97965.41;;;3.02;56.43
75867;BME280;64513;56.258;43.980;2023-03-03T01:30:07;97967.75;;;3.04;56.42
75867;BME280;64513;56.258;43.980;2023-03-03T01:32:31;97970.36;;;3.04;56.49
75867;BME280;64513;56.258;43.980;2023-03-03T01:34:56;97967.48;;;3.05;56.44
75867;BME280;64513;56.258;43.980;2023-03-03T01:37:20;97964.88;;;3.05;56.46
75867;BME280;64513;56.258;43.980;2023-03-03T01:42:30;97955.98;;;3.06;56.53
75867;BME280;64513;56.258;43.980;2023-03-03T01:45:15;97962.77;;;3.07;56.45
75867;BME280;64513;56.258;43.980;2023-03-03T01:56:15;97949.72;;;3.07;56.49
75867;BME280;64513;56.258;43.980;2023-03-03T02:01:27;97944.49;;;3.07;56.53
75867;BME280;64513;56.258;43.980;2023-03-03T02:03:52;97933.00;;;3.08;56.56
75867;BME280;64513;56.258;43.980;2023-03-03T02:06:19;97938.22;;;3.08;56.61
75867;BME280;64513;56.258;43.980;2023-03-03T02:09:20;97934.56;;;3.09;56.67
75867;BME280;64513;56.258;43.980;2023-03-03T02:11:10;97923.33;;;3.09;56.68
75867;BME280;64513;56.258;43.980;2023-03-03T02:13:35;97933.51;;;3.10;56.67
75867;BME280;64513;56.258;43.980;2023-03-03T02:15:59;97920.45;;;3.10;56.69
75867;BME280;64513;56.258;43.980;2023-03-03T02:18:24;97922.02;;;3.11;56.74
75867;BME280;64513;56.258;43.980;2023-03-03T02:26:39;97919.91;;;3.13;56.80
75867;BME280;64513;56.258;43.980;2023-03-03T02:29:04;97923.01;;;3.15;56.85
75867;BME280;64513;56.258;43.980;2023-03-03T02:31:30;97924.09;;;3.14;56.93
75867;BME280;64513;56.258;43.980;2023-03-03T02:33:55;97921.47;;;3.14;56.88
75867;BME280;64513;56.258;43.980;2023-03-03T02:36:39;97917.78;;;3.15;56.90
75867;BME280;64513;56.258;43.980;2023-03-03T02:39:24;97917.78;;;3.15;57.00
75867;BME280;64513;56.258;43.980;2023-03-03T02:42:27;97914.13;;;3.16;56.97
75867;BME280;64513;56.258;43.980;2023-03-03T02:44:20;97916.73;;;3.16;56.88
75867;BME280;64513;56.258;43.980;2023-03-03T02:46:46;97919.34;;;3.16;56.99
75867;BME280;64513;56.258;43.980;2023-03-03T02:49:13;97905.23;;;3.17;57.08
75867;BME280;64513;56.258;43.980;2023-03-03T02:51:39;97905.75;;;3.20;57.07
75867;BME280;64513;56.258;43.980;2023-03-03T02:54:03;97909.14;;;3.20;57.07
75867;BME280;64513;56.258;43.980;2023-03-03T02:56:28;97906.26;;;3.22;57.16
75867;BME280;64513;56.258;43.980;2023-03-03T02:58:52;97904.70;;;3.21;57.17
75867;BME280;64513;56.258;43.980;2023-03-03T03:01:17;97898.42;;;3.22;57.16
75867;BME280;64513;56.258;43.980;2023-03-03T03:03:41;97897.37;;;3.23;57.28
75867;BME280;64513;56.258;43.980;2023-03-03T03:06:05;97902.59;;;3.23;57.24
75867;BME280;64513;56.258;43.980;2023-03-03T03:08:29;97893.70;;;3.24;57.26
75867;BME280;64513;56.258;43.980;2023-03-03T03:10:53;97900.49;;;3.25;57.32
75867;BME280;64513;56.258;43.980;2023-03-03T03:13:18;97898.94;;;3.24;57.44
75867;BME280;64513;56.258;43.980;2023-03-03T03:18:27;97903.61;;;3.27;57.46
75867;BME280;64513;56.258;43.980;2023-03-03T03:20:52;97905.72;;;3.25;57.53
75867;BME280;64513;56.258;43.980;2023-03-03T03:23:17;97906.50;;;3.25;57.59
75867;BME280;64513;56.258;43.980;2023-03-03T03:25:43;97918.51;;;3.26;57.68
75867;BME280;64513;56.258;43.980;2023-03-03T03:28:07;97912.50;;;3.26;57.65
75867;BME280;64513;56.258;43.980;2023-03-03T03:30:31;97911.45;;;3.27;57.68
75867;BME280;64513;56.258;43.980;2023-03-03T03:32:55;97906.73;;;3.29;57.74
75867;BME280;64513;56.258;43.980;2023-03-03T03:35:19;97900.73;;;3.28;57.78
75867;BME280;64513;56.258;43.980;2023-03-03T03:37:44;97901.52;;;3.29;57.90
75867;BME280;64513;56.258;43.980;2023-03-03T03:40:09;97908.00;;;3.31;57.82
75867;BME280;64513;56.258;43.980;2023-03-03T03:42:35;97899.38;;;3.31;57.86
75867;BME280;64513;56.258;43.980;2023-03-03T03:45:00;97902.50;;;3.33;57.83
75867;BME280;64513;56.258;43.980;2023-03-03T03:47:25;97919.73;;;3.34;57.82
75867;BME280;64513;56.258;43.980;2023-03-03T03:49:49;97905.63;;;3.35;57.92
75867;BME280;64513;56.258;43.980;2023-03-03T03:52:14;97907.19;;;3.36;57.91
75867;BME280;64513;56.258;43.980;2023-03-03T03:54:38;97908.75;;;3.37;57.88
75867;BME280;64513;56.258;43.980;2023-03-03T03:57:03;97908.75;;;3.37;57.92
75867;BME280;64513;56.258;43.980;2023-03-03T03:59:27;97900.64;;;3.38;57.98
75867;BME280;64513;56.258;43.980;2023-03-03T04:01:51;97913.42;;;3.40;58.08
75867;BME280;64513;56.258;43.980;2023-03-03T04:04:15;97905.59;;;3.40;57.95
75867;BME280;64513;56.258;43.980;2023-03-03T04:06:41;97908.71;;;3.42;58.04
75867;BME280;64513;56.258;43.980;2023-03-03T04:09:05;97912.89;;;3.43;58.06
75867;BME280;64513;56.258;43.980;2023-03-03T04:11:29;97906.09;;;3.42;58.02
75867;BME280;64513;56.258;43.980;2023-03-03T04:13:53;97908.71;;;3.42;58.11
75867;BME280;64513;56.258;43.980;2023-03-03T04:16:17;97918.63;;;3.45;58.16
75867;BME280;64513;56.258;43.980;2023-03-03T04:18:42;97919.67;;;3.44;58.07
75867;BME280;64513;56.258;43.980;2023-03-03T04:21:09;97916.79;;;3.45;58.01
75867;BME280;64513;56.258;43.980;2023-03-03T04:23:32;97913.88;;;3.47;58.09
75867;BME280;64513;56.258;43.980;2023-03-03T04:25:56;97915.44;;;3.48;58.05
75867;BME280;64513;56.258;43.980;2023-03-03T04:28:20;97917.00;;;3.49;58.07
75867;BME280;64513;56.258;43.980;2023-03-03T04:30:45;97912.55;;;3.49;58.06
75867;BME280;64513;56.258;43.980;2023-03-03T04:33:09;97915.67;;;3.51;58.10
75867;BME280;64513;56.258;43.980;2023-03-03T04:35:33;97916.45;;;3.52;58.12
75867;BME280;64513;56.258;43.980;2023-03-03T04:37:58;97912.78;;;3.53;58.10
75867;BME280;64513;56.258;43.980;2023-03-03T04:40:22;97910.69;;;3.55;58.16
75867;BME280;64513;56.258;43.980;2023-03-03T04:42:46;97918.52;;;3.55;58.17
75867;BME280;64513;56.258;43.980;2023-03-03T04:45:11;97919.03;;;3.57;58.18
75867;BME280;64513;56.258;43.980;2023-03-03T04:47:35;97916.14;;;3.59;58.29
75867;BME280;64513;56.258;43.980;2023-03-03T04:49:59;97922.16;;;3.59;58.33
75867;BME280;64513;56.258;43.980;2023-03-03T04:52:23;97925.27;;;3.61;58.29
75867;BME280;64513;56.258;43.980;2023-03-03T04:54:48;97923.14;;;3.63;58.30
75867;BME280;64513;56.258;43.980;2023-03-03T04:57:12;97928.36;;;3.63;58.25
75867;BME280;64513;56.258;43.980;2023-03-03T04:59:36;97930.44;;;3.66;58.26
75867;BME280;64513;56.258;43.980;2023-03-03T05:02:00;97925.20;;;3.66;58.27
75867;BME280;64513;56.258;43.980;2023-03-03T05:04:25;97929.89;;;3.69;58.24
75867;BME280;64513;56.258;43.980;2023-03-03T05:06:49;97931.45;;;3.70;58.17
75867;BME280;64513;56.258;43.980;2023-03-03T05:09:14;97931.95;;;3.72;58.22
75867;BME280;64513;56.258;43.980;2023-03-03T05:11:38;97935.08;;;3.74;58.19
75867;BME280;64513;56.258;43.980;2023-03-03T05:14:02;97938.20;;;3.76;58.14
75867;BME280;64513;56.258;43.980;2023-03-03T05:16:28;97929.30;;;3.77;58.21
75867;BME280;64513;56.258;43.980;2023-03-03T05:18:52;97931.06;;;3.82;58.17
75867;BME280;64513;56.258;43.980;2023-03-03T05:21:16;97940.20;;;3.84;58.20
75867;BME280;64513;56.258;43.980;2023-03-03T05:23:40;97938.09;;;3.86;58.10
75867;BME280;64513;56.258;43.980;2023-03-03T05:26:05;97938.33;;;3.90;58.12
75867;BME280;64513;56.258;43.980;2023-03-03T05:28:29;97939.61;;;3.93;58.11
75867;BME280;64513;56.258;43.980;2023-03-03T05:30:53;97941.65;;;3.96;58.14
75867;BME280;64513;56.258;43.980;2023-03-03T05:33:18;97945.55;;;3.98;58.16
75867;BME280;64513;56.258;43.980;2023-03-03T05:35:42;97941.88;;;3.99;58.11
75867;BME280;64513;56.258;43.980;2023-03-03T05:38:09;97942.11;;;4.03;58.20
75867;BME280;64513;56.258;43.980;2023-03-03T05:40:33;97946.02;;;4.05;58.10
75867;BME280;64513;56.258;43.980;2023-03-03T05:42:57;97943.91;;;4.07;58.13
75867;BME280;64513;56.258;43.980;2023-03-03T05:45:22;97941.77;;;4.09;58.07
75867;BME280;64513;56.258;43.980;2023-03-03T05:47:47;97941.99;;;4.13;58.06
75867;BME280;64513;56.258;43.980;2023-03-03T05:50:12;97941.44;;;4.16;57.98
75867;BME280;64513;56.258;43.980;2023-03-03T05:52:36;97949.80;;;4.18;58.03
75867;BME280;64513;56.258;43.980;2023-03-03T05:55:00;97948.46;;;4.20;58.02
75867;BME280;64513;56.258;43.980;2023-03-03T05:57:26;97951.58;;;4.22;57.91
75867;BME280;64513;56.258;43.980;2023-03-03T05:59:50;97957.02;;;4.26;57.85
75867;BME280;64513;56.258;43.980;2023-03-03T06:02:14;97946.00;;;4.29;57.79
75867;BME280;64513;56.258;43.980;2023-03-03T06:04:38;97955.12;;;4.32;57.80
75867;BME280;64513;56.258;43.980;2023-03-03T06:07:02;97958.25;;;4.34;57.80
75867;BME280;64513;56.258;43.980;2023-03-03T06:09:26;97956.92;;;4.36;57.72
75867;BME280;64513;56.258;43.980;2023-03-03T06:11:51;97963.16;;;4.40;57.67
75867;BME280;64513;56.258;43.980;2023-03-03T06:14:15;97952.89;;;4.44;57.66
75867;BME280;64513;56.258;43.980;2023-03-03T06:16:39;97951.00;;;4.49;57.60
75867;BME280;64513;56.258;43.980;2023-03-03T06:19:03;97952.01;;;4.53;57.50
75867;BME280;64513;56.258;43.980;2023-03-03T06:21:28;97945.63;;;4.59;57.49
75867;BME280;64513;56.258;43.980;2023-03-03T06:23:52;97950.31;;;4.63;57.40
75867;BME280;64513;56.258;43.980;2023-03-03T06:26:16;97947.64;;;4.68;57.36
75867;BME280;64513;56.258;43.980;2023-03-03T06:28:40;97948.64;;;4.72;57.22
75867;BME280;64513;56.258;43.980;2023-03-03T06:31:04;97943.81;;;4.79;57.20
75867;BME280;64513;56.258;43.980;2023-03-03T06:33:28;97947.44;;;4.83;57.08
75867;BME280;64513;56.258;43.980;2023-03-03T06:35:53;97950.74;;;4.88;57.00
75867;BME280;64513;56.258;43.980;2023-03-03T06:38:18;97944.66;;;4.93;56.93
75867;BME280;64513;56.258;43.980;2023-03-03T06:40:42;97956.14;;;4.97;56.85
75867;BME280;64513;56.258;43.980;2023-03-03T06:43:06;97954.23;;;5.03;56.74
75867;BME280;64513;56.258;43.980;2023-03-03T06:45:30;97955.42;;;5.10;56.64
75867;BME280;64513;56.258;43.980;2023-03-03T06:47:54;97959.53;;;5.16;56.57
75867;BME280;64513;56.258;43.980;2023-03-03T06:50:19;97954.48;;;5.20;56.48
75867;BME280;64513;56.258;43.980;2023-03-03T06:52:44;97957.82;;;5.25;56.32
75867;BME280;64513;56.258;43.980;2023-03-03T06:55:28;97956.19;;;5.29;56.27
75867;BME280;64513;56.258;43.980;2023-03-03T06:57:52;97956.13;;;5.35;56.17
75867;BME280;64513;56.258;43.980;2023-03-03T07:00:18;97946.03;;;5.42;56.09
75867;BME280;64513;56.258;43.980;2023-03-03T07:02:42;97947.03;;;5.46;56.06
75867;BME280;64513;56.258;43.980;2023-03-03T07:07:54;97952.66;;;5.53;56.07
75867;BME280;64513;56.258;43.980;2023-03-03T07:13:25;97947.84;;;5.60;55.90
75867;BME280;64513;56.258;43.980;2023-03-03T07:15:52;97952.52;;;5.63;55.80
75867;BME280;64513;56.258;43.980;2023-03-03T07:18:38;97951.17;;;5.66;55.78
75867;BME280;64513;56.258;43.980;2023-03-03T07:21:23;97953.97;;;5.69;55.78
75867;BME280;64513;56.258;43.980;2023-03-03T07:23:49;97948.66;;;5.74;55.67
75867;BME280;64513;56.258;43.980;2023-03-03T07:26:49;97950.70;;;5.77;55.66
75867;BME280;64513;56.258;43.980;2023-03-03T07:28:46;97951.97;;;5.80;55.61
75867;BME280;64513;56.258;43.980;2023-03-03T07:37:37;97954.44;;;5.90;55.38
75867;BME280;64513;56.258;43.980;2023-03-03T07:42:47;97955.14;;;5.95;55.32
75867;BME280;64513;56.258;43.980;2023-03-03T07:48:22;97953.19;;;6.01;55.29
75867;BME280;64513;56.258;43.980;2023-03-03T07:50:44;97957.08;;;6.04;55.22
75867;BME280;64513;56.258;43.980;2023-03-03T07:53:29;97954.17;;;6.05;55.25
75867;BME280;64513;56.258;43.980;2023-03-03T07:55:55;97961.17;;;6.10;55.15
75867;BME280;64513;56.258;43.980;2023-03-03T07:58:40;97961.66;;;6.12;55.18
75867;BME280;64513;56.258;43.980;2023-03-03T08:07:17;97970.70;;;6.19;54.91
75867;BME280;64513;56.258;43.980;2023-03-03T08:10:01;97963.02;;;6.23;54.86
75867;BME280;64513;56.258;43.980;2023-03-03T08:12:46;97965.08;;;6.26;54.82
75867;BME280;64513;56.258;43.980;2023-03-03T08:15:30;97962.33;;;6.31;54.78
75867;BME280;64513;56.258;43.980;2023-03-03T08:17:55;97973.81;;;6.35;54.72
75867;BME280;64513;56.258;43.980;2023-03-03T08:23:23;97969.53;;;7.38;63.65
75867;BME280;64513;56.258;43.980;2023-03-03T08:25:49;97968.44;;;8.24;61.94
75867;BME280;64513;56.258;43.980;2023-03-03T08:28:14;97968.93;;;8.83;60.66
75867;BME280;64513;56.258;43.980;2023-03-03T08:30:39;97973.02;;;9.40;59.60
75867;BME280;64513;56.258;43.980;2023-03-03T08:33:04;97968.27;;;9.89;58.22
75867;BME280;64513;56.258;43.980;2023-03-03T08:35:28;97968.29;;;10.36;57.18
75867;BME280;64513;56.258;43.980;2023-03-03T08:37:53;97962.62;;;10.75;56.09
75867;BME280;64513;56.258;43.980;2023-03-03T08:40:17;97966.77;;;11.06;55.26
75867;BME280;64513;56.258;43.980;2023-03-03T08:42:41;97956.97;;;11.27;54.42
75867;BME280;64513;56.258;43.980;2023-03-03T08:45:06;97957.95;;;11.55;53.58
75867;BME280;64513;56.258;43.980;2023-03-03T08:47:30;97968.76;;;11.83;52.82
75867;BME280;64513;56.258;43.980;2023-03-03T08:49:54;97959.65;;;12.05;52.30
75867;BME280;64513;56.258;43.980;2023-03-03T08:52:18;97956.80;;;12.22;51.94
75867;BME280;64513;56.258;43.980;2023-03-03T08:54:42;97958.47;;;12.39;51.05
75867;BME280;64513;56.258;43.980;2023-03-03T08:57:07;97959.02;;;12.57;50.89
75867;BME280;64513;56.258;43.980;2023-03-03T08:59:31;97963.39;;;12.77;50.40
75867;BME280;64513;56.258;43.980;2023-03-03T09:01:56;97965.36;;;12.92;50.01
75867;BME280;64513;56.258;43.980;2023-03-03T09:04:21;97961.92;;;13.04;49.65
75867;BME280;64513;56.258;43.980;2023-03-03T09:06:45;97963.12;;;13.19;49.30
75867;BME280;64513;56.258;43.980;2023-03-03T09:09:09;97962.85;;;13.36;48.78
75867;BME280;64513;56.258;43.980;2023-03-03T09:11:33;97971.88;;;13.47;48.45
75867;BME280;64513;56.258;43.980;2023-03-03T09:14:17;97962.56;;;13.53;47.57
75867;BME280;64513;56.258;43.980;2023-03-03T09:19:29;97960.98;;;13.24;46.52
75867;BME280;64513;56.258;43.980;2023-03-03T09:21:55;97961.81;;;13.00;46.49
75867;BME280;64513;56.258;43.980;2023-03-03T09:24:40;97965.72;;;12.79;46.44
75867;BME280;64513;56.258;43.980;2023-03-03T09:27:11;97956.81;;;12.59;46.27
75867;BME280;64513;56.258;43.980;2023-03-03T09:32:37;97962.31;;;12.17;46.09
75867;BME280;64513;56.258;43.980;2023-03-03T09:38:29;97965.66;;;11.81;46.24
75867;BME280;64513;56.258;43.980;2023-03-03T09:44:21;97969.83;;;11.49;46.39
75867;BME280;64513;56.258;43.980;2023-03-03T09:53:15;97971.23;;;11.14;46.37
75867;BME280;64513;56.258;43.980;2023-03-03T10:35:17;97974.92;;;11.01;46.76
75867;BME280;64513;56.258;43.980;2023-03-03T11:03:54;97955.70;;;10.62;46.17
75867;BME280;64513;56.258;43.980;2023-03-03T11:15:32;97952.06;;;10.46;46.16
75867;BME280;64513;56.258;43.980;2023-03-03T11:39:25;97948.63;;;10.07;46.13
75867;BME280;64513;56.258;43.980;2023-03-03T11:44:58;97956.27;;;10.00;46.09
75867;BME280;64513;56.258;43.980;2023-03-03T11:53:37;97963.62;;;9.86;46.15
75867;BME280;64513;56.258;43.980;2023-03-03T11:56:00;97965.95;;;9.79;46.18
75867;BME280;64513;56.258;43.980;2023-03-03T12:16:54;97948.44;;;9.66;46.44
75867;BME280;64513;56.258;43.980;2023-03-03T12:19:07;97961.79;;;9.61;46.47
75867;BME280;64513;56.258;43.980;2023-03-03T12:30:48;97954.36;;;9.45;46.61
75867;BME280;64513;56.258;43.980;2023-03-03T12:45:23;97946.78;;;9.18;47.14
75867;BME280;64513;56.258;43.980;2023-03-03T12:48:15;97950.69;;;9.12;47.15
75867;BME280;64513;56.258;43.980;2023-03-03T12:50:56;97947.11;;;9.08;47.24
75867;BME280;64513;56.258;43.980;2023-03-03T13:02:20;97950.34;;;8.88;47.63
75867;BME280;64513;56.258;43.980;2023-03-03T13:07:31;97944.91;;;8.75;47.88
75867;BME280;64513;56.258;43.980;2023-03-03T13:15:34;97942.11;;;8.63;48.36
75867;BME280;64513;56.258;43.980;2023-03-03T13:27:12;97946.86;;;8.44;49.03
75867;BME280;64513;56.258;43.980;2023-03-03T13:32:45;97941.55;;;8.35;49.33
75867;BME280;64513;56.258;43.980;2023-03-03T13:52:04;97931.52;;;8.06;50.76
75867;BME280;64513;56.258;43.980;2023-03-03T13:57:38;97940.34;;;8.02;51.17
75867;BME280;64513;56.258;43.980;2023-03-03T14:14:32;97940.67;;;7.78;52.31
75867;BME280;64513;56.258;43.980;2023-03-03T14:16:56;97930.57;;;7.71;52.43
75867;BME280;64513;56.258;43.980;2023-03-03T14:25:52;97933.77;;;7.60;52.81
75867;BME280;64513;56.258;43.980;2023-03-03T14:28:17;97932.80;;;7.56;52.96
75867;BME280;64513;56.258;43.980;2023-03-03T14:30:43;97937.13;;;7.52;53.04
75867;BME280;64513;56.258;43.980;2023-03-03T14:49:41;97938.79;;;7.25;53.66
75867;BME280;64513;56.258;43.980;2023-03-03T14:52:26;97944.67;;;7.22;53.76
75867;BME280;64513;56.258;43.980;2023-03-03T14:55:27;97944.48;;;7.19;53.92
75867;BME280;64513;56.258;43.980;2023-03-03T14:57:39;97945.85;;;7.16;54.01
75867;BME280;64513;56.258;43.980;2023-03-03T15:00:28;97939.62;;;7.12;54.11
75867;BME280;64513;56.258;43.980;2023-03-03T15:05:38;97945.02;;;7.07;54.32
75867;BME280;64513;56.258;43.980;2023-03-03T15:25:03;97959.56;;;6.91;54.78
75867;BME280;64513;56.258;43.980;2023-03-03T15:33:34;97967.64;;;6.81;55.07
75867;BME280;64513;56.258;43.980;2023-03-03T16:01:34;97981.21;;;6.60;56.03
75867;BME280;64513;56.258;43.980;2023-03-03T16:07:08;97979.17;;;6.57;56.14
75867;BME280;64513;56.258;43.980;2023-03-03T16:10:28;97976.05;;;6.55;56.28
75867;BME280;64513;56.258;43.980;2023-03-03T16:12:40;97979.75;;;6.54;56.37
75867;BME280;64513;56.258;43.980;2023-03-03T16:18:30;97984.51;;;6.52;56.48
75867;BME280;64513;56.258;43.980;2023-03-03T16:24:38;97990.34;;;6.49;56.65
75867;BME280;64513;56.258;43.980;2023-03-03T16:32:55;97989.67;;;6.44;56.82
75867;BME280;64513;56.258;43.980;2023-03-03T16:55:19;97991.20;;;6.31;57.23
75867;BME280;64513;56.258;43.980;2023-03-03T17:26:42;97987.80;;;6.17;57.72
75867;BME280;64513;56.258;43.980;2023-03-03T17:33:07;97983.61;;;6.16;57.79
75867;BME280;64513;56.258;43.980;2023-03-03T17:35:03;97984.68;;;6.15;57.85
75867;BME280;64513;56.258;43.980;2023-03-03T18:13:05;97989.84;;;6.06;58.06
75867;BME280;64513;56.258;43.980;2023-03-03T18:35:45;98023.16;;;6.06;57.77
75867;BME280;64513;56.258;43.980;2023-03-03T18:44:39;98025.02;;;6.05;57.73
75867;BME280;64513;56.258;43.980;2023-03-03T18:47:04;98026.85;;;6.05;57.77
75867;BME280;64513;56.258;43.980;2023-03-03T18:52:33;98022.67;;;6.04;57.79
75867;BME280;64513;56.258;43.980;2023-03-03T18:55:01;98034.23;;;6.03;57.73
75867;BME280;64513;56.258;43.980;2023-03-03T18:57:26;98039.48;;;6.03;57.72
75867;BME280;64513;56.258;43.980;2023-03-03T19:02:56;98037.35;;;6.05;57.68
75867;BME280;64513;56.258;43.980;2023-03-03T19:05:23;98041.53;;;6.06;57.67
75867;BME280;64513;56.258;43.980;2023-03-03T19:13:41;98044.66;;;6.08;57.60
75867;BME280;64513;56.258;43.980;2023-03-03T19:16:28;98040.47;;;6.07;57.56
75867;BME280;64513;56.258;43.980;2023-03-03T19:24:29;98045.72;;;6.07;57.64
75867;BME280;64513;56.258;43.980;2023-03-03T19:32:50;98049.90;;;6.08;57.74
75867;BME280;64513;56.258;43.980;2023-03-03T19:50:35;98046.00;;;6.05;57.60
75867;BME280;64513;56.258;43.980;2023-03-03T19:53:22;98054.66;;;6.06;57.67
75867;BME280;64513;56.258;43.980;2023-03-03T20:16:26;98050.19;;;6.06;57.78
75867;BME280;64513;56.258;43.980;2023-03-03T20:19:09;98047.56;;;6.06;57.78
75867;BME280;64513;56.258;43.980;2023-03-03T20:39:27;98047.84;;;6.05;57.69
75867;BME280;64513;56.258;43.980;2023-03-03T20:48:22;98054.66;;;6.06;57.67
75867;BME280;64513;56.258;43.980;2023-03-03T20:51:38;98053.88;;;6.05;57.68
75867;BME280;64513;56.258;43.980;2023-03-03T20:53:52;98049.41;;;6.06;57.61
75867;BME280;64513;56.258;43.980;2023-03-03T20:59:25;98043.38;;;6.05;57.57
75867;BME280;64513;56.258;43.980;2023-03-03T21:02:42;98047.84;;;6.05;57.58
75867;BME280;64513;56.258;43.980;2023-03-03T21:04:32;98046.78;;;6.06;57.52
75867;BME280;64513;56.258;43.980;2023-03-03T21:06:58;98047.56;;;6.06;57.49
75867;BME280;64513;56.258;43.980;2023-03-03T21:09:43;98047.84;;;6.05;57.49
75867;BME280;64513;56.258;43.980;2023-03-03T21:12:29;98051.25;;;6.05;57.50
75867;BME280;64513;56.258;43.980;2023-03-03T21:17:58;98047.84;;;6.05;57.41
75867;BME280;64513;56.258;43.980;2023-03-03T21:20:43;98050.75;;;6.03;57.30
75867;BME280;64513;56.258;43.980;2023-03-03T21:23:09;98048.91;;;6.04;57.34
75867;BME280;64513;56.258;43.980;2023-03-03T21:25:53;98043.95;;;6.02;57.31
75867;BME280;64513;56.258;43.980;2023-03-03T21:31:23;98048.41;;;6.02;57.37
75867;BME280;64513;56.258;43.980;2023-03-03T21:36:53;98047.92;;;5.99;57.33
75867;BME280;64513;56.258;43.980;2023-03-03T21:39:38;98044.83;;;5.97;57.28
75867;BME280;64513;56.258;43.980;2023-03-03T21:44:50;98045.89;;;5.96;57.26
75867;BME280;64513;56.258;43.980;2023-03-03T21:50:00;98045.89;;;5.96;57.35
75867;BME280;64513;56.258;43.980;2023-03-03T21:52:25;98051.14;;;5.96;57.29
75867;BME280;64513;56.258;43.980;2023-03-03T21:54:50;98048.02;;;5.94;57.32
75867;BME280;64513;56.258;43.980;2023-03-03T21:57:15;98045.89;;;5.96;57.27
75867;BME280;64513;56.258;43.980;2023-03-03T21:59:40;98045.89;;;5.96;57.36
75867;BME280;64513;56.258;43.980;2023-03-03T22:02:04;98039.87;;;5.96;57.33
75867;BME280;64513;56.258;43.980;2023-03-03T22:04:29;98043.27;;;5.96;57.32
75867;BME280;64513;56.258;43.980;2023-03-03T22:06:53;98042.20;;;5.97;57.30
75867;BME280;64513;56.258;43.980;2023-03-03T22:09:18;98039.59;;;5.97;57.33
75867;BME280;64513;56.258;43.980;2023-03-03T22:11:42;98036.96;;;5.97;57.33
75867;BME280;64513;56.258;43.980;2023-03-03T22:14:07;98040.65;;;5.96;57.30
75867;BME280;64513;56.258;43.980;2023-03-03T22:16:31;98043.27;;;5.96;57.29
75867;BME280;64513;56.258;43.980;2023-03-03T22:18:55;98043.27;;;5.96;57.26
75867;BME280;64513;56.258;43.980;2023-03-03T22:21:19;98040.65;;;5.96;57.25
75867;BME280;64513;56.258;43.980;2023-03-03T22:23:44;98036.19;;;5.97;57.29
75867;BME280;64513;56.258;43.980;2023-03-03T22:26:08;98038.02;;;5.96;57.32
75867;BME280;64513;56.258;43.980;2023-03-03T22:28:32;98045.89;;;5.96;57.26
75867;BME280;64513;56.258;43.980;2023-03-03T22:30:56;98045.89;;;5.96;57.29
75867;BME280;64513;56.258;43.980;2023-03-03T22:33:21;98045.89;;;5.96;57.25
75867;BME280;64513;56.258;43.980;2023-03-03T22:35:45;98044.34;;;5.95;57.26
75867;BME280;64513;56.258;43.980;2023-03-03T22:38:09;98052.20;;;5.95;57.22
75867;BME280;64513;56.258;43.980;2023-03-03T22:40:33;98043.55;;;5.95;57.28
75867;BME280;64513;56.258;43.980;2023-03-03T22:42:58;98053.27;;;5.94;57.37
75867;BME280;64513;56.258;43.980;2023-03-03T22:45:22;98049.09;;;5.93;57.25
75867;BME280;64513;56.258;43.980;2023-03-03T22:47:46;98054.33;;;5.93;57.25
75867;BME280;64513;56.258;43.980;2023-03-03T22:50:11;98050.93;;;5.93;57.26
75867;BME280;64513;56.258;43.980;2023-03-03T22:52:35;98056.18;;;5.93;57.26
75867;BME280;64513;56.258;43.980;2023-03-03T22:54:59;98055.40;;;5.92;57.27
75867;BME280;64513;56.258;43.980;2023-03-03T22:57:25;98054.62;;;5.92;57.18
75867;BME280;64513;56.258;43.980;2023-03-03T22:59:49;98059.09;;;5.91;57.18